sensor_id;sensor_type;location;lat;lon;timestamp;P1;durP1;ratioP1;P2;durP2;ratioP2
20069;SDS011;10195;50.868;4.382;2022-08-04T00:03:08;11.98;;;3.03;;
20069;SDS011;10195;50.868;4.382;2022-08-04T00:05:43;11.35;;;2.92;;
20069;SDS011;10195;50.868;4.382;2022-08-04T00:10:53;11.00;;;3.05;;
20069;SDS011;10195;50.868;4.382;2022-08-04T00:13:23;8.85;;;2.92;;
20069;SDS011;10195;50.868;4.382;2022-08-04T00:15:56;14.32;;;3.15;;
20069;SDS011;10195;50.868;4.382;2022-08-04T00:18:26;14.20;;;2.72;;
20069;SDS011;10195;50.868;4.382;2022-08-04T00:20:58;16.85;;;2.80;;
20069;SDS011;10195;50.868;4.382;2022-08-04T00:23:28;13.38;;;3.20;;
20069;SDS011;10195;50.868;4.382;2022-08-04T00:25:57;9.93;;;2.90;;
20069;SDS011;10195;50.868;4.382;2022-08-04T00:28:24;13.43;;;3.08;;
20069;SDS011;10195;50.868;4.382;2022-08-04T00:30:50;8.65;;;3.15;;
20069;SDS011;10195;50.868;4.382;2022-08-04T00:33:20;9.07;;;2.60;;
20069;SDS011;10195;50.868;4.382;2022-08-04T00:35:47;12.00;;;2.83;;
20069;SDS011;10195;50.868;4.382;2022-08-04T00:38:17;11.60;;;2.78;;
20069;SDS011;10195;50.868;4.382;2022-08-04T00:43:34;8.43;;;3.17;;
20069;SDS011;10195;50.868;4.382;2022-08-04T00:46:18;16.48;;;3.30;;
20069;SDS011;10195;50.868;4.382;2022-08-04T00:51:51;10.50;;;2.70;;
20069;SDS011;10195;50.868;4.382;2022-08-04T00:54:48;12.02;;;3.03;;
20069;SDS011;10195;50.868;4.382;2022-08-04T00:57:39;9.27;;;3.38;;
20069;SDS011;10195;50.868;4.382;2022-08-04T01:00:07;12.35;;;2.80;;
20069;SDS011;10195;50.868;4.382;2022-08-04T01:02:37;9.82;;;3.10;;
20069;SDS011;10195;50.868;4.382;2022-08-04T01:16:48;11.80;;;3.22;;
20069;SDS011;10195;50.868;4.382;2022-08-04T01:30:37;11.43;;;3.42;;
20069;SDS011;10195;50.868;4.382;2022-08-04T01:33:07;12.95;;;4.00;;
20069;SDS011;10195;50.868;4.382;2022-08-04T01:38:15;14.02;;;3.78;;
20069;SDS011;10195;50.868;4.382;2022-08-04T01:40:44;13.73;;;4.00;;
20069;SDS011;10195;50.868;4.382;2022-08-04T01:43:10;8.45;;;3.63;;
20069;SDS011;10195;50.868;4.382;2022-08-04T01:45:38;10.90;;;4.05;;
20069;SDS011;10195;50.868;4.382;2022-08-04T01:48:06;9.65;;;3.70;;
20069;SDS011;10195;50.868;4.382;2022-08-04T01:50:32;9.60;;;3.50;;
20069;SDS011;10195;50.868;4.382;2022-08-04T01:52:59;13.95;;;3.97;;
20069;SDS011;10195;50.868;4.382;2022-08-04T01:55:27;9.20;;;3.83;;
20069;SDS011;10195;50.868;4.382;2022-08-04T01:57:53;11.73;;;3.92;;
20069;SDS011;10195;50.868;4.382;2022-08-04T02:00:26;10.75;;;3.72;;
20069;SDS011;10195;50.868;4.382;2022-08-04T02:02:54;10.15;;;3.42;;
20069;SDS011;10195;50.868;4.382;2022-08-04T02:05:21;12.55;;;3.65;;
20069;SDS011;10195;50.868;4.382;2022-08-04T02:13:08;13.18;;;3.45;;
20069;SDS011;10195;50.868;4.382;2022-08-04T02:18:33;16.23;;;4.00;;
20069;SDS011;10195;50.868;4.382;2022-08-04T02:21:22;8.07;;;3.08;;
20069;SDS011;10195;50.868;4.382;2022-08-04T02:23:50;13.10;;;3.40;;
20069;SDS011;10195;50.868;4.382;2022-08-04T02:26:23;9.43;;;3.47;;
20069;SDS011;10195;50.868;4.382;2022-08-04T02:36:35;9.70;;;3.75;;
20069;SDS011;10195;50.868;4.382;2022-08-04T02:39:04;16.02;;;4.15;;
20069;SDS011;10195;50.868;4.382;2022-08-04T02:41:38;10.93;;;3.97;;
20069;SDS011;10195;50.868;4.382;2022-08-04T02:44:05;7.30;;;3.28;;
20069;SDS011;10195;50.868;4.382;2022-08-04T02:46:33;9.82;;;4.15;;
20069;SDS011;10195;50.868;4.382;2022-08-04T02:49:01;12.40;;;3.42;;
20069;SDS011;10195;50.868;4.382;2022-08-04T02:51:29;15.25;;;4.25;;
20069;SDS011;10195;50.868;4.382;2022-08-04T02:53:59;12.57;;;4.18;;
20069;SDS011;10195;50.868;4.382;2022-08-04T02:56:29;15.25;;;4.93;;
20069;SDS011;10195;50.868;4.382;2022-08-04T02:59:19;11.05;;;5.00;;
20069;SDS011;10195;50.868;4.382;2022-08-04T03:01:44;12.30;;;4.43;;
20069;SDS011;10195;50.868;4.382;2022-08-04T03:15:52;12.38;;;4.53;;
20069;SDS011;10195;50.868;4.382;2022-08-04T03:41:02;10.60;;;4.40;;
20069;SDS011;10195;50.868;4.382;2022-08-04T04:12:21;8.85;;;3.13;;
20069;SDS011;10195;50.868;4.382;2022-08-04T04:28:51;11.23;;;3.20;;
20069;SDS011;10195;50.868;4.382;2022-08-04T04:37:02;14.32;;;3.55;;
20069;SDS011;10195;50.868;4.382;2022-08-04T04:40:33;7.93;;;3.53;;
20069;SDS011;10195;50.868;4.382;2022-08-04T04:45:24;9.23;;;3.33;;
20069;SDS011;10195;50.868;4.382;2022-08-04T04:48:08;11.70;;;3.40;;
20069;SDS011;10195;50.868;4.382;2022-08-04T04:57:06;12.32;;;3.40;;
20069;SDS011;10195;50.868;4.382;2022-08-04T04:59:15;11.90;;;3.33;;
20069;SDS011;10195;50.868;4.382;2022-08-04T05:15:49;16.45;;;4.60;;
20069;SDS011;10195;50.868;4.382;2022-08-04T05:18:21;22.90;;;5.15;;
20069;SDS011;10195;50.868;4.382;2022-08-04T05:20:52;15.05;;;3.92;;
20069;SDS011;10195;50.868;4.382;2022-08-04T05:23:23;16.52;;;4.72;;
20069;SDS011;10195;50.868;4.382;2022-08-04T05:25:54;15.95;;;4.90;;
20069;SDS011;10195;50.868;4.382;2022-08-04T05:28:24;16.10;;;4.30;;
20069;SDS011;10195;50.868;4.382;2022-08-04T05:31:26;13.02;;;4.10;;
20069;SDS011;10195;50.868;4.382;2022-08-04T05:36:24;12.18;;;4.13;;
20069;SDS011;10195;50.868;4.382;2022-08-04T05:38:57;10.20;;;4.07;;
20069;SDS011;10195;50.868;4.382;2022-08-04T05:41:25;13.73;;;4.20;;
20069;SDS011;10195;50.868;4.382;2022-08-04T05:43:52;12.23;;;4.10;;
20069;SDS011;10195;50.868;4.382;2022-08-04T05:46:19;14.45;;;4.55;;
20069;SDS011;10195;50.868;4.382;2022-08-04T05:48:44;14.07;;;4.28;;
20069;SDS011;10195;50.868;4.382;2022-08-04T05:51:11;12.30;;;4.05;;
20069;SDS011;10195;50.868;4.382;2022-08-04T05:53:38;11.48;;;3.95;;
20069;SDS011;10195;50.868;4.382;2022-08-04T05:56:08;11.25;;;3.50;;
20069;SDS011;10195;50.868;4.382;2022-08-04T05:58:36;20.40;;;4.75;;
20069;SDS011;10195;50.868;4.382;2022-08-04T06:01:02;13.80;;;4.38;;
20069;SDS011;10195;50.868;4.382;2022-08-04T06:03:32;11.45;;;3.95;;
20069;SDS011;10195;50.868;4.382;2022-08-04T06:05:59;11.40;;;3.85;;
20069;SDS011;10195;50.868;4.382;2022-08-04T06:08:27;12.98;;;3.75;;
20069;SDS011;10195;50.868;4.382;2022-08-04T06:10:54;8.52;;;3.08;;
20069;SDS011;10195;50.868;4.382;2022-08-04T06:13:29;11.10;;;3.58;;
20069;SDS011;10195;50.868;4.382;2022-08-04T06:16:02;12.60;;;3.83;;
20069;SDS011;10195;50.868;4.382;2022-08-04T06:18:30;11.57;;;3.78;;
20069;SDS011;10195;50.868;4.382;2022-08-04T06:20:59;10.35;;;3.83;;
20069;SDS011;10195;50.868;4.382;2022-08-04T06:23:27;13.52;;;3.83;;
20069;SDS011;10195;50.868;4.382;2022-08-04T06:25:56;12.50;;;4.03;;
20069;SDS011;10195;50.868;4.382;2022-08-04T06:28:24;10.10;;;3.83;;
20069;SDS011;10195;50.868;4.382;2022-08-04T06:30:51;13.48;;;3.60;;
20069;SDS011;10195;50.868;4.382;2022-08-04T06:33:19;19.67;;;4.50;;
20069;SDS011;10195;50.868;4.382;2022-08-04T06:35:58;17.63;;;3.95;;
20069;SDS011;10195;50.868;4.382;2022-08-04T06:38:26;11.98;;;3.50;;
20069;SDS011;10195;50.868;4.382;2022-08-04T06:40:56;12.43;;;3.92;;
20069;SDS011;10195;50.868;4.382;2022-08-04T06:43:23;10.70;;;4.60;;
20069;SDS011;10195;50.868;4.382;2022-08-04T06:45:51;11.98;;;3.83;;
20069;SDS011;10195;50.868;4.382;2022-08-04T06:48:18;10.70;;;3.70;;
20069;SDS011;10195;50.868;4.382;2022-08-04T06:50:49;12.45;;;3.53;;
20069;SDS011;10195;50.868;4.382;2022-08-04T06:53:17;15.85;;;4.15;;
20069;SDS011;10195;50.868;4.382;2022-08-04T06:55:44;14.73;;;3.90;;
20069;SDS011;10195;50.868;4.382;2022-08-04T06:58:10;13.95;;;3.40;;
20069;SDS011;10195;50.868;4.382;2022-08-04T07:00:38;12.57;;;3.38;;
20069;SDS011;10195;50.868;4.382;2022-08-04T07:03:05;11.85;;;3.80;;
20069;SDS011;10195;50.868;4.382;2022-08-04T07:05:34;13.07;;;2.78;;
20069;SDS011;10195;50.868;4.382;2022-08-04T07:08:00;13.10;;;3.35;;
20069;SDS011;10195;50.868;4.382;2022-08-04T07:10:27;14.82;;;3.60;;
20069;SDS011;10195;50.868;4.382;2022-08-04T07:12:55;12.90;;;3.45;;
20069;SDS011;10195;50.868;4.382;2022-08-04T07:15:21;10.65;;;3.33;;
20069;SDS011;10195;50.868;4.382;2022-08-04T07:17:48;11.23;;;3.67;;
20069;SDS011;10195;50.868;4.382;2022-08-04T07:20:15;11.98;;;3.15;;
20069;SDS011;10195;50.868;4.382;2022-08-04T07:22:43;11.93;;;3.15;;
20069;SDS011;10195;50.868;4.382;2022-08-04T07:25:10;12.45;;;3.47;;
20069;SDS011;10195;50.868;4.382;2022-08-04T07:27:37;9.00;;;2.88;;
20069;SDS011;10195;50.868;4.382;2022-08-04T07:30:06;10.88;;;3.75;;
20069;SDS011;10195;50.868;4.382;2022-08-04T07:32:32;16.33;;;3.67;;
20069;SDS011;10195;50.868;4.382;2022-08-04T07:34:59;13.77;;;3.30;;
20069;SDS011;10195;50.868;4.382;2022-08-04T07:37:27;10.77;;;3.17;;
20069;SDS011;10195;50.868;4.382;2022-08-04T07:39:53;8.98;;;3.17;;
20069;SDS011;10195;50.868;4.382;2022-08-04T07:42:19;14.20;;;3.83;;
20069;SDS011;10195;50.868;4.382;2022-08-04T07:44:45;14.07;;;3.92;;
20069;SDS011;10195;50.868;4.382;2022-08-04T07:47:11;18.08;;;4.00;;
20069;SDS011;10195;50.868;4.382;2022-08-04T07:49:38;12.50;;;3.33;;
20069;SDS011;10195;50.868;4.382;2022-08-04T07:52:05;18.25;;;3.78;;
20069;SDS011;10195;50.868;4.382;2022-08-04T07:54:32;10.40;;;3.67;;
20069;SDS011;10195;50.868;4.382;2022-08-04T07:56:58;9.60;;;4.38;;
20069;SDS011;10195;50.868;4.382;2022-08-04T07:59:24;13.55;;;4.68;;
20069;SDS011;10195;50.868;4.382;2022-08-04T08:01:50;9.07;;;4.07;;
20069;SDS011;10195;50.868;4.382;2022-08-04T08:04:17;14.88;;;4.60;;
20069;SDS011;10195;50.868;4.382;2022-08-04T08:06:44;10.50;;;4.45;;
20069;SDS011;10195;50.868;4.382;2022-08-04T08:09:11;10.27;;;4.60;;
20069;SDS011;10195;50.868;4.382;2022-08-04T08:11:38;12.02;;;3.85;;
20069;SDS011;10195;50.868;4.382;2022-08-04T08:14:04;16.70;;;5.00;;
20069;SDS011;10195;50.868;4.382;2022-08-04T08:16:32;12.75;;;3.83;;
20069;SDS011;10195;50.868;4.382;2022-08-04T08:18:59;13.52;;;4.32;;
20069;SDS011;10195;50.868;4.382;2022-08-04T08:21:25;12.32;;;4.30;;
20069;SDS011;10195;50.868;4.382;2022-08-04T08:23:51;11.27;;;4.53;;
20069;SDS011;10195;50.868;4.382;2022-08-04T08:26:17;16.33;;;5.63;;
20069;SDS011;10195;50.868;4.382;2022-08-04T08:28:43;13.45;;;5.07;;
20069;SDS011;10195;50.868;4.382;2022-08-04T08:31:09;13.05;;;5.65;;
20069;SDS011;10195;50.868;4.382;2022-08-04T08:33:35;14.63;;;6.15;;
20069;SDS011;10195;50.868;4.382;2022-08-04T09:04:20;28.02;;;12.98;;
20069;SDS011;10195;50.868;4.382;2022-08-04T09:07:05;35.08;;;13.75;;
20069;SDS011;10195;50.868;4.382;2022-08-04T09:10:07;27.88;;;13.90;;
20069;SDS011;10195;50.868;4.382;2022-08-04T09:12:44;35.30;;;14.40;;
20069;SDS011;10195;50.868;4.382;2022-08-04T09:15:26;30.40;;;15.07;;
20069;SDS011;10195;50.868;4.382;2022-08-04T09:20:43;30.42;;;14.38;;
20069;SDS011;10195;50.868;4.382;2022-08-04T09:25:57;29.67;;;14.25;;
20069;SDS011;10195;50.868;4.382;2022-08-04T09:28:33;29.98;;;14.80;;
20069;SDS011;10195;50.868;4.382;2022-08-04T09:31:14;24.42;;;13.95;;
20069;SDS011;10195;50.868;4.382;2022-08-04T09:33:49;26.50;;;14.77;;
20069;SDS011;10195;50.868;4.382;2022-08-04T09:36:50;39.17;;;16.20;;
20069;SDS011;10195;50.868;4.382;2022-08-04T09:39:26;39.45;;;16.45;;
20069;SDS011;10195;50.868;4.382;2022-08-04T09:42:02;33.85;;;16.05;;
20069;SDS011;10195;50.868;4.382;2022-08-04T09:44:54;32.15;;;18.15;;
20069;SDS011;10195;50.868;4.382;2022-08-04T09:47:29;40.38;;;18.00;;
20069;SDS011;10195;50.868;4.382;2022-08-04T09:49:59;41.15;;;19.73;;
20069;SDS011;10195;50.868;4.382;2022-08-04T09:52:55;41.50;;;20.23;;
20069;SDS011;10195;50.868;4.382;2022-08-04T09:55:33;36.88;;;20.25;;
20069;SDS011;10195;50.868;4.382;2022-08-04T10:00:59;34.05;;;22.42;;
20069;SDS011;10195;50.868;4.382;2022-08-04T10:03:28;30.17;;;20.55;;
20069;SDS011;10195;50.868;4.382;2022-08-04T10:06:05;38.33;;;21.83;;
20069;SDS011;10195;50.868;4.382;2022-08-04T10:09:12;34.38;;;20.98;;
20069;SDS011;10195;50.868;4.382;2022-08-04T10:12:04;38.65;;;21.60;;
20069;SDS011;10195;50.868;4.382;2022-08-04T10:15:03;33.63;;;20.83;;
20069;SDS011;10195;50.868;4.382;2022-08-04T10:17:55;36.22;;;21.02;;
20069;SDS011;10195;50.868;4.382;2022-08-04T10:26:19;38.55;;;20.33;;
20069;SDS011;10195;50.868;4.382;2022-08-04T10:28:54;36.70;;;21.02;;
20069;SDS011;10195;50.868;4.382;2022-08-04T10:31:29;35.45;;;19.42;;
20069;SDS011;10195;50.868;4.382;2022-08-04T10:34:02;31.42;;;19.83;;
20069;SDS011;10195;50.868;4.382;2022-08-04T10:37:00;28.10;;;17.30;;
20069;SDS011;10195;50.868;4.382;2022-08-04T10:39:31;31.25;;;18.20;;
20069;SDS011;10195;50.868;4.382;2022-08-04T10:42:10;27.10;;;18.30;;
20069;SDS011;10195;50.868;4.382;2022-08-04T10:45:07;31.88;;;18.17;;
20069;SDS011;10195;50.868;4.382;2022-08-04T10:47:52;30.27;;;17.63;;
20069;SDS011;10195;50.868;4.382;2022-08-04T10:50:26;24.08;;;16.48;;
20069;SDS011;10195;50.868;4.382;2022-08-04T10:53:04;27.52;;;17.52;;
20069;SDS011;10195;50.868;4.382;2022-08-04T10:55:35;25.20;;;15.73;;
20069;SDS011;10195;50.868;4.382;2022-08-04T10:58:05;22.52;;;15.80;;
20069;SDS011;10195;50.868;4.382;2022-08-04T11:00:38;23.63;;;16.25;;
20069;SDS011;10195;50.868;4.382;2022-08-04T11:05:58;26.85;;;14.15;;
20069;SDS011;10195;50.868;4.382;2022-08-04T11:11:25;19.40;;;13.60;;
20069;SDS011;10195;50.868;4.382;2022-08-04T11:14:18;22.88;;;13.85;;
20069;SDS011;10195;50.868;4.382;2022-08-04T11:17:07;14.45;;;10.82;;
20069;SDS011;10195;50.868;4.382;2022-08-04T11:24:45;18.92;;;12.20;;
20069;SDS011;10195;50.868;4.382;2022-08-04T11:30:22;25.92;;;13.02;;
20069;SDS011;10195;50.868;4.382;2022-08-04T11:38:04;16.38;;;11.55;;
20069;SDS011;10195;50.868;4.382;2022-08-04T11:40:46;19.80;;;10.68;;
20069;SDS011;10195;50.868;4.382;2022-08-04T11:43:17;17.88;;;10.05;;
20069;SDS011;10195;50.868;4.382;2022-08-04T11:46:00;15.32;;;10.05;;
20069;SDS011;10195;50.868;4.382;2022-08-04T11:48:34;19.42;;;11.13;;
20069;SDS011;10195;50.868;4.382;2022-08-04T11:51:02;15.88;;;10.38;;
20069;SDS011;10195;50.868;4.382;2022-08-04T11:53:29;17.65;;;9.82;;
20069;SDS011;10195;50.868;4.382;2022-08-04T11:55:59;16.83;;;9.63;;
20069;SDS011;10195;50.868;4.382;2022-08-04T11:58:27;18.67;;;10.30;;
20069;SDS011;10195;50.868;4.382;2022-08-04T12:03:31;13.70;;;9.30;;
20069;SDS011;10195;50.868;4.382;2022-08-04T12:06:09;20.38;;;8.98;;
20069;SDS011;10195;50.868;4.382;2022-08-04T12:08:46;16.73;;;7.90;;
20069;SDS011;10195;50.868;4.382;2022-08-04T12:17:00;15.13;;;7.47;;
20069;SDS011;10195;50.868;4.382;2022-08-04T12:19:36;12.45;;;8.40;;
20069;SDS011;10195;50.868;4.382;2022-08-04T12:22:15;15.40;;;7.20;;
20069;SDS011;10195;50.868;4.382;2022-08-04T12:24:48;15.60;;;7.15;;
20069;SDS011;10195;50.868;4.382;2022-08-04T12:27:26;12.30;;;6.03;;
20069;SDS011;10195;50.868;4.382;2022-08-04T12:29:57;13.93;;;7.15;;
20069;SDS011;10195;50.868;4.382;2022-08-04T12:32:42;12.30;;;6.93;;
20069;SDS011;10195;50.868;4.382;2022-08-04T12:35:38;14.88;;;7.10;;
20069;SDS011;10195;50.868;4.382;2022-08-04T12:38:17;13.20;;;6.70;;
20069;SDS011;10195;50.868;4.382;2022-08-04T12:40:49;11.07;;;5.90;;
20069;SDS011;10195;50.868;4.382;2022-08-04T12:43:24;17.65;;;7.00;;
20069;SDS011;10195;50.868;4.382;2022-08-04T12:45:57;11.15;;;6.30;;
20069;SDS011;10195;50.868;4.382;2022-08-04T12:48:27;12.13;;;6.00;;
20069;SDS011;10195;50.868;4.382;2022-08-04T12:50:56;14.68;;;6.28;;
20069;SDS011;10195;50.868;4.382;2022-08-04T12:53:25;11.95;;;5.78;;
20069;SDS011;10195;50.868;4.382;2022-08-04T12:56:01;15.98;;;6.43;;
20069;SDS011;10195;50.868;4.382;2022-08-04T12:58:30;10.65;;;6.60;;
20069;SDS011;10195;50.868;4.382;2022-08-04T13:01:10;12.98;;;6.22;;
20069;SDS011;10195;50.868;4.382;2022-08-04T13:03:57;12.93;;;6.35;;
20069;SDS011;10195;50.868;4.382;2022-08-04T13:06:28;9.70;;;5.43;;
20069;SDS011;10195;50.868;4.382;2022-08-04T13:09:07;14.35;;;5.53;;
20069;SDS011;10195;50.868;4.382;2022-08-04T13:11:48;14.50;;;4.97;;
20069;SDS011;10195;50.868;4.382;2022-08-04T13:14:17;8.75;;;5.38;;
20069;SDS011;10195;50.868;4.382;2022-08-04T13:16:45;10.02;;;4.93;;
20069;SDS011;10195;50.868;4.382;2022-08-04T13:19:10;13.63;;;5.82;;
20069;SDS011;10195;50.868;4.382;2022-08-04T13:21:41;7.68;;;5.22;;
20069;SDS011;10195;50.868;4.382;2022-08-04T13:24:11;14.57;;;5.20;;
20069;SDS011;10195;50.868;4.382;2022-08-04T13:26:45;10.05;;;4.88;;
20069;SDS011;10195;50.868;4.382;2022-08-04T13:29:22;9.07;;;4.80;;
20069;SDS011;10195;50.868;4.382;2022-08-04T13:31:50;9.07;;;4.45;;
20069;SDS011;10195;50.868;4.382;2022-08-04T13:34:17;8.90;;;4.38;;
20069;SDS011;10195;50.868;4.382;2022-08-04T13:36:44;11.35;;;4.65;;
20069;SDS011;10195;50.868;4.382;2022-08-04T13:39:14;11.02;;;4.25;;
20069;SDS011;10195;50.868;4.382;2022-08-04T13:41:46;9.88;;;3.75;;
20069;SDS011;10195;50.868;4.382;2022-08-04T13:44:17;10.85;;;4.28;;
20069;SDS011;10195;50.868;4.382;2022-08-04T13:46:56;10.90;;;3.47;;
20069;SDS011;10195;50.868;4.382;2022-08-04T13:49:24;7.53;;;3.70;;
20069;SDS011;10195;50.868;4.382;2022-08-04T13:51:51;12.73;;;4.68;;
20069;SDS011;10195;50.868;4.382;2022-08-04T13:54:19;9.00;;;4.38;;
20069;SDS011;10195;50.868;4.382;2022-08-04T13:56:46;7.45;;;4.30;;
20069;SDS011;10195;50.868;4.382;2022-08-04T13:59:14;8.02;;;3.97;;
20069;SDS011;10195;50.868;4.382;2022-08-04T14:01:43;5.88;;;4.00;;
20069;SDS011;10195;50.868;4.382;2022-08-04T14:04:20;9.38;;;3.65;;
20069;SDS011;10195;50.868;4.382;2022-08-04T14:06:50;9.60;;;4.22;;
20069;SDS011;10195;50.868;4.382;2022-08-04T14:09:23;8.57;;;4.45;;
20069;SDS011;10195;50.868;4.382;2022-08-04T14:11:52;17.10;;;4.28;;
20069;SDS011;10195;50.868;4.382;2022-08-04T14:14:21;6.38;;;3.30;;
20069;SDS011;10195;50.868;4.382;2022-08-04T14:27:42;7.72;;;3.92;;
20069;SDS011;10195;50.868;4.382;2022-08-04T14:30:19;9.52;;;3.58;;
20069;SDS011;10195;50.868;4.382;2022-08-04T14:32:57;8.25;;;4.38;;
20069;SDS011;10195;50.868;4.382;2022-08-04T14:35:31;11.13;;;4.22;;
20069;SDS011;10195;50.868;4.382;2022-08-04T14:37:58;7.68;;;3.90;;
20069;SDS011;10195;50.868;4.382;2022-08-04T14:40:30;15.07;;;4.00;;
20069;SDS011;10195;50.868;4.382;2022-08-04T14:43:01;9.02;;;3.63;;
20069;SDS011;10195;50.868;4.382;2022-08-04T14:47:57;10.45;;;4.15;;
20069;SDS011;10195;50.868;4.382;2022-08-04T14:55:33;7.78;;;3.67;;
20069;SDS011;10195;50.868;4.382;2022-08-04T14:58:00;9.80;;;3.53;;
20069;SDS011;10195;50.868;4.382;2022-08-04T15:00:30;6.38;;;2.90;;
20069;SDS011;10195;50.868;4.382;2022-08-04T15:03:03;13.73;;;3.85;;
20069;SDS011;10195;50.868;4.382;2022-08-04T15:05:33;8.48;;;3.40;;
20069;SDS011;10195;50.868;4.382;2022-08-04T15:08:03;6.88;;;3.85;;
20069;SDS011;10195;50.868;4.382;2022-08-04T15:10:29;7.93;;;3.60;;
20069;SDS011;10195;50.868;4.382;2022-08-04T15:12:55;8.52;;;3.63;;
20069;SDS011;10195;50.868;4.382;2022-08-04T15:15:21;9.93;;;4.00;;
20069;SDS011;10195;50.868;4.382;2022-08-04T15:17:48;10.02;;;3.45;;
20069;SDS011;10195;50.868;4.382;2022-08-04T15:20:17;7.95;;;3.78;;
20069;SDS011;10195;50.868;4.382;2022-08-04T15:22:44;8.02;;;3.20;;
20069;SDS011;10195;50.868;4.382;2022-08-04T15:25:09;14.00;;;4.03;;
20069;SDS011;10195;50.868;4.382;2022-08-04T15:27:36;10.18;;;4.15;;
20069;SDS011;10195;50.868;4.382;2022-08-04T15:30:08;5.55;;;3.47;;
20069;SDS011;10195;50.868;4.382;2022-08-04T15:32:57;8.32;;;3.53;;
20069;SDS011;10195;50.868;4.382;2022-08-04T15:35:25;9.13;;;4.40;;
20069;SDS011;10195;50.868;4.382;2022-08-04T15:40:38;8.35;;;4.05;;
20069;SDS011;10195;50.868;4.382;2022-08-04T15:46:14;7.88;;;4.20;;
20069;SDS011;10195;50.868;4.382;2022-08-04T15:48:46;11.05;;;4.45;;
20069;SDS011;10195;50.868;4.382;2022-08-04T15:51:12;9.73;;;3.78;;
20069;SDS011;10195;50.868;4.382;2022-08-04T15:58:54;14.32;;;3.58;;
20069;SDS011;10195;50.868;4.382;2022-08-04T16:01:20;11.00;;;3.65;;
20069;SDS011;10195;50.868;4.382;2022-08-04T16:03:48;8.57;;;3.90;;
20069;SDS011;10195;50.868;4.382;2022-08-04T16:19:05;10.13;;;3.13;;
20069;SDS011;10195;50.868;4.382;2022-08-04T16:21:33;6.82;;;3.90;;
20069;SDS011;10195;50.868;4.382;2022-08-04T16:26:57;5.43;;;2.83;;
20069;SDS011;10195;50.868;4.382;2022-08-04T16:34:51;14.20;;;3.10;;
20069;SDS011;10195;50.868;4.382;2022-08-04T16:37:17;10.38;;;2.90;;
20069;SDS011;10195;50.868;4.382;2022-08-04T16:39:44;5.65;;;2.92;;
20069;SDS011;10195;50.868;4.382;2022-08-04T16:44:59;9.20;;;2.88;;
20069;SDS011;10195;50.868;4.382;2022-08-04T16:48:13;8.10;;;2.63;;
20069;SDS011;10195;50.868;4.382;2022-08-04T16:50:21;5.32;;;2.55;;
20069;SDS011;10195;50.868;4.382;2022-08-04T16:52:51;6.65;;;3.15;;
20069;SDS011;10195;50.868;4.382;2022-08-04T16:55:19;9.38;;;2.83;;
20069;SDS011;10195;50.868;4.382;2022-08-04T16:57:46;9.50;;;2.70;;
20069;SDS011;10195;50.868;4.382;2022-08-04T17:00:13;8.57;;;2.75;;
20069;SDS011;10195;50.868;4.382;2022-08-04T17:02:39;8.38;;;2.75;;
20069;SDS011;10195;50.868;4.382;2022-08-04T17:05:19;8.25;;;2.72;;
20069;SDS011;10195;50.868;4.382;2022-08-04T17:07:52;5.10;;;2.45;;
20069;SDS011;10195;50.868;4.382;2022-08-04T17:10:42;6.22;;;2.38;;
20069;SDS011;10195;50.868;4.382;2022-08-04T17:16:03;4.80;;;2.20;;
20069;SDS011;10195;50.868;4.382;2022-08-04T17:18:35;4.50;;;2.10;;
20069;SDS011;10195;50.868;4.382;2022-08-04T17:21:07;5.18;;;2.30;;
20069;SDS011;10195;50.868;4.382;2022-08-04T17:23:38;12.13;;;2.78;;
20069;SDS011;10195;50.868;4.382;2022-08-04T17:26:10;8.48;;;2.83;;
20069;SDS011;10195;50.868;4.382;2022-08-04T17:28:37;9.38;;;3.17;;
20069;SDS011;10195;50.868;4.382;2022-08-04T17:31:05;17.63;;;2.40;;
20069;SDS011;10195;50.868;4.382;2022-08-04T17:33:33;5.68;;;2.33;;
20069;SDS011;10195;50.868;4.382;2022-08-04T17:36:00;6.45;;;2.33;;
20069;SDS011;10195;50.868;4.382;2022-08-04T17:38:40;11.02;;;2.55;;
20069;SDS011;10195;50.868;4.382;2022-08-04T17:41:09;8.98;;;2.60;;
20069;SDS011;10195;50.868;4.382;2022-08-04T17:51:34;7.40;;;2.90;;
20069;SDS011;10195;50.868;4.382;2022-08-04T17:54:05;7.40;;;2.58;;
20069;SDS011;10195;50.868;4.382;2022-08-04T17:56:35;12.40;;;8.75;;
20069;SDS011;10195;50.868;4.382;2022-08-04T18:04:22;5.88;;;2.70;;
20069;SDS011;10195;50.868;4.382;2022-08-04T18:06:55;8.63;;;2.90;;
20069;SDS011;10195;50.868;4.382;2022-08-04T18:09:23;4.28;;;2.40;;
20069;SDS011;10195;50.868;4.382;2022-08-04T18:11:59;13.80;;;3.58;;
20069;SDS011;10195;50.868;4.382;2022-08-04T18:17:32;9.00;;;4.85;;
20069;SDS011;10195;50.868;4.382;2022-08-04T18:20:02;9.95;;;3.80;;
20069;SDS011;10195;50.868;4.382;2022-08-04T18:22:29;9.80;;;4.30;;
20069;SDS011;10195;50.868;4.382;2022-08-04T18:24:55;20.58;;;5.15;;
20069;SDS011;10195;50.868;4.382;2022-08-04T18:27:21;8.02;;;3.65;;
20069;SDS011;10195;50.868;4.382;2022-08-04T18:29:49;19.77;;;6.30;;
20069;SDS011;10195;50.868;4.382;2022-08-04T18:32:15;23.48;;;12.25;;
20069;SDS011;10195;50.868;4.382;2022-08-04T18:34:41;7.53;;;3.15;;
20069;SDS011;10195;50.868;4.382;2022-08-04T18:37:06;9.15;;;2.92;;
20069;SDS011;10195;50.868;4.382;2022-08-04T18:39:32;35.28;;;5.15;;
20069;SDS011;10195;50.868;4.382;2022-08-04T18:41:58;27.20;;;12.70;;
20069;SDS011;10195;50.868;4.382;2022-08-04T18:44:25;15.85;;;8.30;;
20069;SDS011;10195;50.868;4.382;2022-08-04T18:46:53;12.80;;;5.85;;
20069;SDS011;10195;50.868;4.382;2022-08-04T18:49:19;13.88;;;6.80;;
20069;SDS011;10195;50.868;4.382;2022-08-04T18:51:48;5.95;;;2.42;;
20069;SDS011;10195;50.868;4.382;2022-08-04T18:54:14;10.43;;;4.97;;
20069;SDS011;10195;50.868;4.382;2022-08-04T18:56:40;11.40;;;3.00;;
20069;SDS011;10195;50.868;4.382;2022-08-04T18:59:06;18.73;;;9.38;;
20069;SDS011;10195;50.868;4.382;2022-08-04T19:01:31;18.38;;;6.82;;
20069;SDS011;10195;50.868;4.382;2022-08-04T19:03:57;18.38;;;4.60;;
20069;SDS011;10195;50.868;4.382;2022-08-04T19:06:23;23.25;;;4.50;;
20069;SDS011;10195;50.868;4.382;2022-08-04T19:08:49;9.15;;;3.28;;
20069;SDS011;10195;50.868;4.382;2022-08-04T19:11:15;8.82;;;3.35;;
20069;SDS011;10195;50.868;4.382;2022-08-04T19:13:40;6.85;;;2.33;;
20069;SDS011;10195;50.868;4.382;2022-08-04T19:16:06;9.35;;;3.00;;
20069;SDS011;10195;50.868;4.382;2022-08-04T19:18:33;7.80;;;3.00;;
20069;SDS011;10195;50.868;4.382;2022-08-04T19:20:58;7.03;;;2.63;;
20069;SDS011;10195;50.868;4.382;2022-08-04T19:23:24;12.70;;;3.05;;
20069;SDS011;10195;50.868;4.382;2022-08-04T19:25:50;9.85;;;2.97;;
20069;SDS011;10195;50.868;4.382;2022-08-04T19:28:16;6.72;;;2.78;;
20069;SDS011;10195;50.868;4.382;2022-08-04T19:30:42;11.10;;;2.97;;
20069;SDS011;10195;50.868;4.382;2022-08-04T19:33:08;10.65;;;3.25;;
20069;SDS011;10195;50.868;4.382;2022-08-04T19:35:34;9.52;;;3.22;;
20069;SDS011;10195;50.868;4.382;2022-08-04T19:38:02;12.18;;;3.95;;
20069;SDS011;10195;50.868;4.382;2022-08-04T19:40:27;11.02;;;3.92;;
20069;SDS011;10195;50.868;4.382;2022-08-04T19:42:53;6.38;;;3.20;;
20069;SDS011;10195;50.868;4.382;2022-08-04T19:45:19;11.50;;;3.45;;
20069;SDS011;10195;50.868;4.382;2022-08-04T19:47:45;7.35;;;3.38;;
20069;SDS011;10195;50.868;4.382;2022-08-04T19:50:11;8.48;;;3.63;;
20069;SDS011;10195;50.868;4.382;2022-08-04T19:52:37;10.80;;;4.35;;
20069;SDS011;10195;50.868;4.382;2022-08-04T19:55:03;7.82;;;3.40;;
20069;SDS011;10195;50.868;4.382;2022-08-04T19:57:29;11.27;;;3.50;;
20069;SDS011;10195;50.868;4.382;2022-08-04T19:59:55;12.32;;;3.83;;
20069;SDS011;10195;50.868;4.382;2022-08-04T20:02:21;9.00;;;3.72;;